Time;durP1;ratioP1;P1;durP2;ratioP2;P2;SDS_P1;SDS_P2;PMS_P1;PMS_P2;Temp;Humidity;BMP_temperature;BMP_pressure;BME280_temperature;BME280_humidity;BME280_pressure;Samples;Min_cycle;Max_cycle;Signal;HPM_P1;HPM_P2
2022/01/02 00:00:44;;;;;;;15.05;4.78;;;;;;;;;;5000221;28;20628;-58
2022/01/02 00:03:17;;;;;;;15.85;4.75;;;;;;;;;;5017342;28;20120;-57
2022/01/02 00:05:48;;;;;;;17.75;5.55;;;;;;;;;;5018269;28;20037;-57
2022/01/02 00:08:17;;;;;;;14.43;5.15;;;;;;;;;;5017366;28;20045;-57
2022/01/02 00:10:52;;;;;;;20.60;4.85;;;;;;;;;;4989053;28;20618;-58
2022/01/02 00:13:28;;;;;;;12.80;5.05;;;;;;;;;;5017592;28;20056;-58
2022/01/02 00:16:03;;;;;;;12.07;5.00;;;;;;;;;;5017157;28;20041;-59
2022/01/02 00:18:34;;;;;;;9.65;5.43;;;;;;;;;;5015105;28;20392;-58
2022/01/02 00:21:02;;;;;;;14.15;5.60;;;;;;;;;;5018429;28;20056;-59
2022/01/02 00:23:33;;;;;;;16.60;6.07;;;;;;;;;;5017405;28;20064;-59
2022/01/02 00:26:04;;;;;;;16.00;6.07;;;;;;;;;;5015763;28;20500;-59
2022/01/02 00:28:31;;;;;;;15.30;5.35;;;;;;;;;;5016255;28;20025;-58
2022/01/02 00:30:59;;;;;;;13.98;6.00;;;;;;;;;;5018885;28;20037;-59
2022/01/02 00:33:25;;;;;;;13.55;6.10;;;;;;;;;;4985831;28;20029;-58
2022/01/02 00:35:53;;;;;;;16.63;6.82;;;;;;;;;;5004299;28;20107;-57
2022/01/02 00:38:20;;;;;;;15.20;7.40;;;;;;;;;;5002127;28;20555;-58
2022/01/02 00:40:50;;;;;;;15.18;6.07;;;;;;;;;;5017470;28;20043;-58
2022/01/02 00:43:22;;;;;;;20.55;8.23;;;;;;;;;;5013527;28;20033;-58
2022/01/02 00:45:51;;;;;;;15.75;6.72;;;;;;;;;;4985131;28;20155;-58
2022/01/02 00:48:22;;;;;;;20.83;6.85;;;;;;;;;;5018372;28;20026;-58
2022/01/02 00:50:49;;;;;;;18.10;6.90;;;;;;;;;;5017907;28;20033;-59
2022/01/02 00:53:20;;;;;;;17.90;5.90;;;;;;;;;;5017409;28;20037;-59
2022/01/02 00:55:46;;;;;;;16.02;5.63;;;;;;;;;;5017488;28;20129;-59
2022/01/02 00:58:13;;;;;;;11.27;5.60;;;;;;;;;;4997576;28;20041;-59
2022/01/02 01:00:45;;;;;;;17.35;6.25;;;;;;;;;;5001566;28;20171;-60
2022/01/02 01:03:14;;;;;;;19.67;6.18;;;;;;;;;;5016293;28;20033;-58
2022/01/02 01:05:40;;;;;;;17.83;6.85;;;;;;;;;;4999828;28;20041;-58
2022/01/02 01:08:13;;;;;;;14.82;6.88;;;;;;;;;;5002328;28;20381;-58
2022/01/02 01:10:39;;;;;;;18.85;7.15;;;;;;;;;;4999760;28;20052;-58
2022/01/02 01:13:08;;;;;;;18.48;7.18;;;;;;;;;;5018638;28;20044;-60
2022/01/02 01:15:34;;;;;;;16.50;7.28;;;;;;;;;;5017548;28;20044;-58
2022/01/02 01:18:01;;;;;;;22.02;7.15;;;;;;;;;;5018530;28;20021;-58
2022/01/02 01:20:31;;;;;;;18.20;7.13;;;;;;;;;;5017173;28;20036;-58
2022/01/02 01:22:56;;;;;;;22.65;8.23;;;;;;;;;;5016527;28;20998;-58
2022/01/02 01:25:27;;;;;;;19.85;7.13;;;;;;;;;;5015337;28;20044;-58
2022/01/02 01:27:55;;;;;;;14.98;6.25;;;;;;;;;;4983145;28;21942;-58
2022/01/02 01:30:22;;;;;;;21.60;6.80;;;;;;;;;;5016921;28;20051;-59
2022/01/02 01:32:48;;;;;;;16.08;6.38;;;;;;;;;;5015517;28;20108;-58
2022/01/02 01:35:19;;;;;;;19.52;6.55;;;;;;;;;;5017155;28;20029;-58
2022/01/02 01:37:52;;;;;;;19.55;6.90;;;;;;;;;;5016258;28;20043;-58
2022/01/02 01:40:18;;;;;;;17.58;6.85;;;;;;;;;;5015014;28;20075;-58
2022/01/02 01:42:57;;;;;;;25.00;7.43;;;;;;;;;;5013274;28;20037;-58
2022/01/02 01:47:57;;;;;;;19.45;6.53;;;;;;;;;;5016239;28;20038;-58
2022/01/02 01:50:25;;;;;;;20.92;7.18;;;;;;;;;;5022501;28;20572;-58
2022/01/02 01:52:53;;;;;;;18.33;6.55;;;;;;;;;;5021073;28;20595;-59
2022/01/02 01:55:23;;;;;;;21.17;7.03;;;;;;;;;;5009742;28;20041;-58
2022/01/02 01:57:53;;;;;;;15.15;6.85;;;;;;;;;;5021010;28;20034;-59
2022/01/02 02:00:22;;;;;;;16.10;6.88;;;;;;;;;;4990988;28;20040;-57
2022/01/02 02:02:50;;;;;;;20.98;7.18;;;;;;;;;;5018972;28;20028;-58
2022/01/02 02:05:17;;;;;;;20.23;7.25;;;;;;;;;;4986699;28;20120;-58
2022/01/02 02:07:46;;;;;;;21.08;7.75;;;;;;;;;;5002744;28;20123;-57
2022/01/02 02:10:18;;;;;;;22.52;9.38;;;;;;;;;;5021419;28;21899;-58
2022/01/02 02:12:49;;;;;;;19.42;9.15;;;;;;;;;;5020326;28;20030;-57
2022/01/02 02:15:17;;;;;;;27.15;9.50;;;;;;;;;;5005979;28;20043;-56
2022/01/02 02:17:46;;;;;;;26.27;9.35;;;;;;;;;;5002665;28;20483;-57
2022/01/02 02:20:32;;;;;;;25.40;8.13;;;;;;;;;;5000100;28;21985;-58
2022/01/02 02:22:58;;;;;;;27.23;9.23;;;;;;;;;;5001097;28;20162;-58
2022/01/02 02:25:27;;;;;;;28.23;8.95;;;;;;;;;;4990977;28;20033;-58
2022/01/02 02:28:04;;;;;;;25.60;9.20;;;;;;;;;;5022224;28;20033;-58
2022/01/02 02:30:33;;;;;;;21.42;9.55;;;;;;;;;;5010660;28;20021;-58
2022/01/02 02:32:59;;;;;;;41.78;9.98;;;;;;;;;;5021133;28;20837;-59
2022/01/02 02:35:28;;;;;;;27.60;9.50;;;;;;;;;;5020910;28;20028;-59
2022/01/02 02:37:56;;;;;;;22.73;8.93;;;;;;;;;;5021906;28;20295;-58
2022/01/02 02:40:24;;;;;;;21.65;8.27;;;;;;;;;;5022674;28;20032;-59
2022/01/02 02:43:06;;;;;;;24.75;8.20;;;;;;;;;;5019967;28;20033;-59
2022/01/02 02:51:05;;;;;;;23.77;8.00;;;;;;;;;;5020443;28;20408;-58
2022/01/02 02:53:31;;;;;;;32.83;8.23;;;;;;;;;;5006183;28;20028;-59
2022/01/02 02:55:59;;;;;;;29.60;8.98;;;;;;;;;;4991564;28;20527;-60
2022/01/02 03:00:57;;;;;;;34.00;8.07;;;;;;;;;;5018914;28;20033;-59
2022/01/02 03:03:22;;;;;;;31.48;7.35;;;;;;;;;;5008128;28;20048;-59
2022/01/02 03:05:48;;;;;;;25.58;8.07;;;;;;;;;;5018515;28;20389;-59
2022/01/02 03:08:16;;;;;;;30.83;8.07;;;;;;;;;;5001453;28;20052;-58
2022/01/02 03:10:41;;;;;;;32.45;8.43;;;;;;;;;;5020211;28;20037;-58
2022/01/02 03:13:07;;;;;;;21.42;7.10;;;;;;;;;;5004519;28;20137;-59
2022/01/02 03:15:37;;;;;;;22.42;8.30;;;;;;;;;;5020292;28;20745;-58
2022/01/02 03:18:02;;;;;;;47.88;8.82;;;;;;;;;;5001076;28;20095;-59
2022/01/02 03:20:27;;;;;;;27.70;8.50;;;;;;;;;;5019913;28;20116;-59
2022/01/02 03:22:56;;;;;;;19.15;7.47;;;;;;;;;;5018612;28;20045;-59
2022/01/02 03:25:22;;;;;;;12.77;7.63;;;;;;;;;;5017194;28;20033;-57
2022/01/02 03:27:47;;;;;;;19.27;8.00;;;;;;;;;;5020773;28;21058;-58
2022/01/02 03:30:13;;;;;;;27.50;8.60;;;;;;;;;;4987969;28;20127;-59
2022/01/02 03:32:41;;;;;;;29.10;8.68;;;;;;;;;;4988020;28;21997;-59
2022/01/02 03:35:07;;;;;;;31.33;8.43;;;;;;;;;;5009111;28;20030;-57
2022/01/02 03:37:34;;;;;;;18.20;8.15;;;;;;;;;;5000454;28;20025;-58
2022/01/02 03:40:03;;;;;;;26.13;8.63;;;;;;;;;;5005236;28;20025;-58
2022/01/02 03:42:34;;;;;;;21.73;8.90;;;;;;;;;;5018231;28;20037;-58
2022/01/02 03:44:59;;;;;;;21.77;8.15;;;;;;;;;;5016372;28;20036;-57
2022/01/02 03:47:25;;;;;;;24.92;9.05;;;;;;;;;;5014087;28;20389;-58
2022/01/02 03:49:51;;;;;;;24.17;9.13;;;;;;;;;;4989184;28;20137;-58
2022/01/02 03:52:18;;;;;;;27.88;8.63;;;;;;;;;;4986989;28;20057;-58
2022/01/02 03:54:46;;;;;;;22.50;7.93;;;;;;;;;;5017134;28;20021;-59
2022/01/02 03:57:14;;;;;;;25.17;8.82;;;;;;;;;;4999879;28;20087;-58
2022/01/02 03:59:39;;;;;;;20.50;7.90;;;;;;;;;;4983667;28;20045;-57
2022/01/02 04:02:05;;;;;;;24.80;9.45;;;;;;;;;;4986329;28;20508;-57
2022/01/02 04:04:30;;;;;;;30.58;8.52;;;;;;;;;;4988709;28;20052;-58
2022/01/02 04:06:57;;;;;;;22.05;8.57;;;;;;;;;;4997307;28;20144;-57
2022/01/02 04:09:23;;;;;;;27.13;8.70;;;;;;;;;;5016396;28;20559;-57
2022/01/02 04:11:51;;;;;;;29.17;8.80;;;;;;;;;;4987267;28;20115;-58
2022/01/02 04:14:19;;;;;;;25.83;10.00;;;;;;;;;;4998869;28;20041;-58
2022/01/02 04:16:47;;;;;;;58.85;11.05;;;;;;;;;;4986217;28;20045;-59
2022/01/02 04:19:14;;;;;;;36.58;8.65;;;;;;;;;;5014879;28;20185;-58
2022/01/02 04:21:43;;;;;;;28.83;9.30;;;;;;;;;;4997555;28;20028;-58
2022/01/02 04:24:11;;;;;;;48.80;10.20;;;;;;;;;;4996873;28;20041;-58
2022/01/02 04:26:36;;;;;;;38.00;9.00;;;;;;;;;;5014927;28;20037;-59
2022/01/02 04:29:02;;;;;;;36.97;10.02;;;;;;;;;;4999694;28;20107;-59
2022/01/02 04:31:30;;;;;;;35.17;10.60;;;;;;;;;;5016355;28;20021;-59
2022/01/02 04:33:58;;;;;;;23.95;8.27;;;;;;;;;;5001583;28;20124;-58
2022/01/02 04:36:28;;;;;;;23.58;8.45;;;;;;;;;;4998089;28;21922;-58
2022/01/02 04:38:56;;;;;;;29.50;7.55;;;;;;;;;;5001764;28;20042;-59
2022/01/02 04:41:21;;;;;;;20.63;8.20;;;;;;;;;;5017143;28;20124;-58
2022/01/02 04:43:46;;;;;;;19.23;7.15;;;;;;;;;;4989234;28;22350;-59
2022/01/02 04:46:16;;;;;;;23.30;7.97;;;;;;;;;;5018916;28;20671;-57
2022/01/02 04:48:41;;;;;;;15.40;6.97;;;;;;;;;;5003185;28;20044;-58
2022/01/02 04:51:09;;;;;;;22.95;8.32;;;;;;;;;;5003197;28;20061;-59
2022/01/02 04:53:45;;;;;;;22.25;7.90;;;;;;;;;;5016796;28;20073;-57
2022/01/02 04:56:14;;;;;;;23.52;6.72;;;;;;;;;;5018306;28;20037;-60
2022/01/02 04:58:39;;;;;;;29.42;8.07;;;;;;;;;;5006132;28;20037;-57
2022/01/02 05:01:07;;;;;;;20.23;8.38;;;;;;;;;;5017800;28;20039;-58
2022/01/02 05:03:35;;;;;;;24.17;9.55;;;;;;;;;;5015931;28;20652;-60
2022/01/02 05:06:00;;;;;;;24.35;8.40;;;;;;;;;;5001383;28;20041;-58
2022/01/02 05:08:28;;;;;;;16.42;7.70;;;;;;;;;;4982894;28;20191;-58
2022/01/02 05:10:54;;;;;;;21.33;7.72;;;;;;;;;;5017166;28;20032;-59
2022/01/02 05:13:21;;;;;;;23.52;7.70;;;;;;;;;;5004299;28;21977;-58
2022/01/02 05:15:51;;;;;;;19.00;7.53;;;;;;;;;;5018028;28;20044;-57
2022/01/02 05:18:17;;;;;;;22.33;7.72;;;;;;;;;;4983147;28;20036;-58
2022/01/02 05:20:47;;;;;;;20.85;7.53;;;;;;;;;;5016411;28;20037;-57
2022/01/02 05:23:13;;;;;;;20.88;7.63;;;;;;;;;;5000065;28;20067;-58
2022/01/02 05:25:43;;;;;;;20.48;8.50;;;;;;;;;;4998740;28;20040;-59
2022/01/02 05:28:11;;;;;;;26.33;8.30;;;;;;;;;;5000844;28;20021;-59
2022/01/02 05:30:40;;;;;;;18.08;7.00;;;;;;;;;;5001725;28;20033;-58
2022/01/02 05:33:08;;;;;;;25.55;8.50;;;;;;;;;;4997426;28;20044;-57
2022/01/02 05:35:34;;;;;;;29.95;8.48;;;;;;;;;;5016751;28;20095;-58
2022/01/02 05:38:00;;;;;;;26.40;7.55;;;;;;;;;;5004833;28;20572;-58
2022/01/02 05:40:31;;;;;;;20.67;7.47;;;;;;;;;;5015751;28;20025;-56
2022/01/02 05:42:57;;;;;;;26.23;6.57;;;;;;;;;;5005944;28;20037;-57
2022/01/02 05:45:22;;;;;;;34.95;6.35;;;;;;;;;;5018725;28;20029;-57
2022/01/02 05:47:50;;;;;;;25.35;6.45;;;;;;;;;;5002266;28;20033;-59
2022/01/02 05:50:15;;;;;;;21.23;6.80;;;;;;;;;;4971776;28;20025;-58
2022/01/02 05:52:46;;;;;;;14.07;6.28;;;;;;;;;;5015468;28;20068;-58
2022/01/02 05:55:11;;;;;;;19.05;6.00;;;;;;;;;;5020113;28;20036;-57
2022/01/02 05:57:37;;;;;;;19.67;6.05;;;;;;;;;;5017964;28;20029;-56
2022/01/02 06:00:07;;;;;;;22.70;5.90;;;;;;;;;;5018510;28;20037;-57
2022/01/02 06:02:32;;;;;;;23.35;5.55;;;;;;;;;;5015993;28;20155;-58
2022/01/02 06:05:02;;;;;;;19.08;5.63;;;;;;;;;;5018238;28;20026;-56
2022/01/02 06:07:28;;;;;;;20.88;6.75;;;;;;;;;;5018901;28;20131;-59
2022/01/02 06:09:53;;;;;;;30.45;6.28;;;;;;;;;;5015315;28;21547;-57
2022/01/02 06:12:23;;;;;;;22.58;5.55;;;;;;;;;;5003249;28;20315;-57
2022/01/02 06:14:51;;;;;;;22.80;5.35;;;;;;;;;;5002977;28;20045;-57
2022/01/02 06:17:18;;;;;;;22.88;5.82;;;;;;;;;;5018730;28;20518;-58
2022/01/02 06:19:44;;;;;;;23.77;4.50;;;;;;;;;;4989161;28;20124;-59
2022/01/02 06:22:09;;;;;;;27.23;5.75;;;;;;;;;;4982570;28;20040;-58
2022/01/02 06:24:34;;;;;;;13.88;5.55;;;;;;;;;;4985596;28;20100;-56
2022/01/02 06:27:02;;;;;;;12.98;4.68;;;;;;;;;;5000334;28;20037;-57
2022/01/02 06:29:33;;;;;;;17.35;5.68;;;;;;;;;;4987439;28;20021;-59
2022/01/02 06:32:02;;;;;;;19.35;5.57;;;;;;;;;;4974281;28;20034;-57
2022/01/02 06:34:30;;;;;;;11.73;5.60;;;;;;;;;;5019728;28;22226;-57
2022/01/02 06:36:58;;;;;;;19.50;6.30;;;;;;;;;;5020996;28;20072;-57
2022/01/02 06:39:27;;;;;;;16.77;5.32;;;;;;;;;;5009837;28;20163;-56
2022/01/02 06:41:54;;;;;;;15.45;5.00;;;;;;;;;;5002195;28;20040;-57
2022/01/02 06:44:20;;;;;;;18.85;5.40;;;;;;;;;;5005480;28;20044;-56
2022/01/02 06:46:50;;;;;;;12.65;4.53;;;;;;;;;;4996775;28;20758;-57
2022/01/02 06:49:18;;;;;;;19.02;4.38;;;;;;;;;;5021683;28;20452;-58
2022/01/02 06:51:46;;;;;;;15.25;5.88;;;;;;;;;;5004299;28;20065;-56
2022/01/02 06:54:14;;;;;;;11.10;5.00;;;;;;;;;;4987503;28;20044;-58
2022/01/02 06:56:42;;;;;;;15.82;5.28;;;;;;;;;;5017777;28;20033;-58
2022/01/02 06:59:10;;;;;;;16.15;4.10;;;;;;;;;;5004024;28;20561;-57
2022/01/02 07:01:35;;;;;;;20.02;4.93;;;;;;;;;;5009409;28;20051;-58
2022/01/02 07:04:01;;;;;;;26.80;4.97;;;;;;;;;;5004877;28;20040;-58
2022/01/02 07:06:26;;;;;;;16.23;5.10;;;;;;;;;;4994311;28;20033;-58
2022/01/02 07:08:51;;;;;;;15.48;3.65;;;;;;;;;;4981423;28;20105;-58
2022/01/02 07:11:18;;;;;;;11.38;3.65;;;;;;;;;;4984509;28;20252;-58
2022/01/02 07:13:43;;;;;;;11.43;3.13;;;;;;;;;;4999023;28;20030;-57
2022/01/02 07:16:09;;;;;;;11.52;4.35;;;;;;;;;;4977636;28;20037;-57
2022/01/02 07:18:39;;;;;;;12.93;3.47;;;;;;;;;;4955421;28;20118;-58
2022/01/02 07:21:07;;;;;;;12.65;3.92;;;;;;;;;;4986238;28;20042;-58
2022/01/02 07:23:32;;;;;;;17.70;3.63;;;;;;;;;;4998420;28;20086;-57
2022/01/02 07:25:57;;;;;;;15.93;3.78;;;;;;;;;;4974701;28;20128;-58
2022/01/02 07:28:25;;;;;;;10.88;3.80;;;;;;;;;;4999923;28;20160;-57
2022/01/02 07:30:53;;;;;;;9.63;3.42;;;;;;;;;;4982761;28;20037;-57
2022/01/02 07:33:18;;;;;;;16.90;3.65;;;;;;;;;;4982010;28;20116;-57
2022/01/02 07:35:51;;;;;;;22.48;3.25;;;;;;;;;;4987140;28;20038;-59
2022/01/02 07:38:22;;;;;;;9.88;3.03;;;;;;;;;;4999434;28;20880;-58
2022/01/02 07:40:48;;;;;;;14.02;3.33;;;;;;;;;;4999596;28;20085;-58
2022/01/02 07:43:14;;;;;;;12.15;3.88;;;;;;;;;;4999064;28;20038;-59
2022/01/02 07:45:41;;;;;;;16.38;3.47;;;;;;;;;;4982743;28;20038;-58
2022/01/02 07:48:12;;;;;;;16.92;3.38;;;;;;;;;;4982357;28;20120;-58
2022/01/02 07:50:40;;;;;;;19.67;4.38;;;;;;;;;;4998289;28;20038;-58
2022/01/02 07:53:08;;;;;;;5.07;2.67;;;;;;;;;;4985308;28;20034;-58
2022/01/02 07:55:37;;;;;;;9.23;3.55;;;;;;;;;;4983431;28;20092;-58
2022/01/02 07:58:02;;;;;;;12.88;3.13;;;;;;;;;;4981979;28;20050;-58
2022/01/02 08:00:30;;;;;;;16.33;4.40;;;;;;;;;;4984529;28;20068;-59
2022/01/02 08:02:55;;;;;;;15.13;3.55;;;;;;;;;;4999015;28;20493;-60
2022/01/02 08:05:21;;;;;;;18.63;3.92;;;;;;;;;;4998363;28;20034;-59
2022/01/02 08:07:49;;;;;;;10.45;3.30;;;;;;;;;;5000842;28;20655;-60
2022/01/02 08:10:17;;;;;;;20.67;4.30;;;;;;;;;;4989240;28;20093;-59
2022/01/02 08:12:42;;;;;;;22.42;3.40;;;;;;;;;;4988952;28;20091;-60
2022/01/02 08:15:08;;;;;;;22.67;3.95;;;;;;;;;;5019204;28;20041;-59
2022/01/02 08:17:36;;;;;;;19.45;3.75;;;;;;;;;;5003553;28;20041;-59
2022/01/02 08:20:02;;;;;;;36.95;4.63;;;;;;;;;;5016764;28;20095;-60
2022/01/02 08:22:28;;;;;;;12.63;3.85;;;;;;;;;;5017747;28;20033;-59
2022/01/02 08:24:56;;;;;;;17.40;4.40;;;;;;;;;;4983589;28;20048;-60
2022/01/02 08:27:21;;;;;;;19.20;4.72;;;;;;;;;;4999224;28;20042;-59
2022/01/02 08:29:49;;;;;;;21.83;5.57;;;;;;;;;;4983471;28;20033;-60
2022/01/02 08:32:17;;;;;;;19.50;5.57;;;;;;;;;;4996542;28;20025;-59
2022/01/02 08:34:45;;;;;;;11.05;3.58;;;;;;;;;;4990708;28;20033;-59
2022/01/02 08:37:15;;;;;;;11.98;3.60;;;;;;;;;;4999944;28;20037;-59
2022/01/02 08:39:42;;;;;;;12.88;3.33;;;;;;;;;;5016306;28;20056;-58
2022/01/02 08:42:07;;;;;;;14.02;4.25;;;;;;;;;;4991270;28;20041;-59
2022/01/02 08:44:33;;;;;;;7.72;3.53;;;;;;;;;;5019909;28;20031;-59
2022/01/02 08:47:01;;;;;;;12.57;5.00;;;;;;;;;;5001826;28;20064;-59
2022/01/02 08:49:26;;;;;;;10.95;3.55;;;;;;;;;;4987005;28;20033;-59
2022/01/02 08:51:54;;;;;;;8.25;3.58;;;;;;;;;;5015964;28;20037;-58
2022/01/02 08:54:21;;;;;;;14.25;3.85;;;;;;;;;;5020045;28;20460;-59
2022/01/02 08:56:50;;;;;;;5.88;3.45;;;;;;;;;;5017713;28;20039;-57
2022/01/02 08:59:24;;;;;;;10.60;3.80;;;;;;;;;;5019285;28;20060;-57
2022/01/02 09:01:53;;;;;;;7.70;3.92;;;;;;;;;;5016000;28;20037;-57
2022/01/02 09:04:18;;;;;;;13.38;3.50;;;;;;;;;;5016201;28;20064;-58
2022/01/02 09:06:44;;;;;;;9.70;3.17;;;;;;;;;;5015940;28;20132;-58
2022/01/02 09:09:14;;;;;;;11.18;3.25;;;;;;;;;;5005019;28;20029;-60
2022/01/02 09:11:46;;;;;;;14.47;2.87;;;;;;;;;;4999547;28;20041;-58
2022/01/02 09:14:13;;;;;;;10.75;2.88;;;;;;;;;;5013813;28;20037;-59
2022/01/02 09:16:44;;;;;;;4.65;2.80;;;;;;;;;;5003298;28;20787;-59
2022/01/02 09:19:12;;;;;;;6.70;2.80;;;;;;;;;;5016664;28;20029;-58
2022/01/02 09:21:38;;;;;;;8.77;2.70;;;;;;;;;;5001838;28;20164;-58
2022/01/02 09:24:04;;;;;;;3.10;2.58;;;;;;;;;;5000588;28;20108;-58
2022/01/02 09:26:31;;;;;;;12.43;3.67;;;;;;;;;;4993387;28;20437;-58
2022/01/02 09:28:57;;;;;;;6.53;3.67;;;;;;;;;;4997815;28;20040;-58
2022/01/02 09:31:22;;;;;;;9.55;4.20;;;;;;;;;;4999841;28;20783;-59
2022/01/02 09:33:47;;;;;;;11.07;4.68;;;;;;;;;;5014235;28;20042;-58
2022/01/02 09:36:15;;;;;;;14.63;5.78;;;;;;;;;;5004435;28;20037;-58
2022/01/02 09:38:44;;;;;;;13.02;4.55;;;;;;;;;;4996432;28;20098;-58
2022/01/02 09:41:11;;;;;;;15.25;6.55;;;;;;;;;;5005195;28;20065;-58
2022/01/02 09:43:40;;;;;;;19.05;5.65;;;;;;;;;;4997635;28;20041;-57
2022/01/02 09:46:07;;;;;;;8.70;4.53;;;;;;;;;;4999389;28;20872;-58
2022/01/02 09:48:33;;;;;;;11.32;3.97;;;;;;;;;;4985890;28;20048;-60
2022/01/02 09:51:01;;;;;;;8.32;4.53;;;;;;;;;;5015505;28;20056;-59
2022/01/02 09:53:29;;;;;;;9.43;4.32;;;;;;;;;;5011602;28;20045;-58
2022/01/02 09:55:56;;;;;;;9.57;4.20;;;;;;;;;;5016619;28;20044;-58
2022/01/02 09:58:26;;;;;;;10.43;4.53;;;;;;;;;;5003911;28;20033;-59
2022/01/02 10:00:54;;;;;;;35.22;5.68;;;;;;;;;;4982650;28;20033;-58
2022/01/02 10:03:25;;;;;;;9.98;4.97;;;;;;;;;;4996442;28;20500;-59
2022/01/02 10:05:57;;;;;;;9.57;4.15;;;;;;;;;;4995707;28;20725;-58
2022/01/02 10:08:27;;;;;;;0.10;0.10;;;;;;;;;;5016452;28;20117;-60
2022/01/02 10:11:25;;;;;;;0.22;0.22;;;;;;;;;;5001554;28;20025;-59
2022/01/02 10:13:53;;;;;;;0.22;0.22;;;;;;;;;;4959075;28;20045;-60
2022/01/02 10:16:37;;;;;;;3.33;0.70;;;;;;;;;;5020021;28;20043;-60
2022/01/02 10:19:19;;;;;;;0.00;0.00;;;;;;;;;;5020676;28;20037;-59
2022/01/02 10:21:52;;;;;;;0.00;0.00;;;;;;;;;;5002853;28;20030;-60
2022/01/02 10:24:25;;;;;;;0.00;0.00;;;;;;;;;;5003591;28;20036;-59
2022/01/02 10:27:02;;;;;;;0.00;0.00;;;;;;;;;;5002012;28;20155;-59
2022/01/02 10:29:37;;;;;;;0.00;0.00;;;;;;;;;;5020318;28;20017;-58
2022/01/02 10:32:21;;;;;;;0.25;0.25;;;;;;;;;;5005440;28;20037;-59
2022/01/02 10:34:51;;;;;;;0.08;0.08;;;;;;;;;;5003545;28;20024;-58
2022/01/02 10:37:26;;;;;;;0.00;0.00;;;;;;;;;;4999673;28;20037;-59
2022/01/02 10:39:56;;;;;;;0.00;0.00;;;;;;;;;;5020280;28;20543;-58
2022/01/02 10:42:24;;;;;;;3.63;0.77;;;;;;;;;;5016597;28;20098;-58
2022/01/02 10:44:52;;;;;;;0.00;0.00;;;;;;;;;;5021256;28;20299;-59
2022/01/02 10:47:21;;;;;;;0.00;0.00;;;;;;;;;;5003256;28;20037;-59
2022/01/02 10:50:06;;;;;;;0.00;0.00;;;;;;;;;;5020030;28;20049;-59
2022/01/02 10:52:46;;;;;;;2.95;0.85;;;;;;;;;;5016827;28;20661;-59
2022/01/02 10:55:16;;;;;;;2.63;0.55;;;;;;;;;;5010327;28;20409;-58
2022/01/02 10:57:47;;;;;;;0.55;0.55;;;;;;;;;;5005123;28;20029;-59
2022/01/02 11:00:13;;;;;;;0.00;0.00;;;;;;;;;;5018589;28;20041;-57
2022/01/02 11:02:43;;;;;;;0.00;0.00;;;;;;;;;;5003698;28;20037;-57
2022/01/02 11:05:14;;;;;;;0.20;0.20;;;;;;;;;;5003037;28;20053;-57
2022/01/02 11:07:43;;;;;;;0.32;0.15;;;;;;;;;;5000186;28;20049;-57
2022/01/02 11:10:18;;;;;;;0.22;0.22;;;;;;;;;;5020606;28;20032;-57
2022/01/02 11:12:44;;;;;;;0.00;0.00;;;;;;;;;;5001032;28;20124;-57
2022/01/02 11:15:13;;;;;;;0.28;0.25;;;;;;;;;;5007384;28;20034;-58
2022/01/02 11:17:43;;;;;;;0.00;0.00;;;;;;;;;;4999167;28;20039;-58
2022/01/02 11:20:10;;;;;;;17.52;1.45;;;;;;;;;;5009259;28;20119;-59
2022/01/02 11:22:41;;;;;;;1.75;0.88;;;;;;;;;;4998562;28;21894;-59
2022/01/02 11:25:09;;;;;;;0.05;0.05;;;;;;;;;;4997080;28;20614;-58
2022/01/02 11:27:43;;;;;;;0.00;0.00;;;;;;;;;;5014233;28;20032;-58
2022/01/02 11:30:27;;;;;;;0.40;0.40;;;;;;;;;;5019269;28;20025;-59
2022/01/02 11:33:15;;;;;;;1.25;0.28;;;;;;;;;;5018640;28;20080;-59
2022/01/02 11:35:47;;;;;;;0.17;0.17;;;;;;;;;;5017243;28;20034;-59
2022/01/02 11:38:17;;;;;;;0.00;0.00;;;;;;;;;;5018190;28;20053;-59
2022/01/02 11:40:46;;;;;;;0.05;0.05;;;;;;;;;;5008868;28;20025;-58
2022/01/02 11:43:31;;;;;;;0.20;0.10;;;;;;;;;;5016076;28;20040;-58
2022/01/02 11:46:13;;;;;;;0.00;0.00;;;;;;;;;;5018659;28;20026;-58
2022/01/02 11:48:39;;;;;;;0.10;0.10;;;;;;;;;;5016031;28;20036;-58
2022/01/02 11:51:04;;;;;;;0.00;0.00;;;;;;;;;;4998574;28;20080;-58
2022/01/02 11:53:34;;;;;;;0.00;0.00;;;;;;;;;;5005292;28;20044;-58
2022/01/02 11:56:04;;;;;;;0.47;0.47;;;;;;;;;;4999509;28;20037;-60
2022/01/02 11:58:38;;;;;;;0.00;0.00;;;;;;;;;;5016547;28;20041;-59
2022/01/02 12:01:07;;;;;;;0.77;0.77;;;;;;;;;;5015241;28;20583;-59
2022/01/02 12:03:38;;;;;;;0.63;0.63;;;;;;;;;;5016696;28;20064;-59
2022/01/02 12:06:13;;;;;;;2.72;1.65;;;;;;;;;;5016575;28;20037;-59
2022/01/02 12:08:38;;;;;;;0.00;0.00;;;;;;;;;;5018905;28;20060;-59
2022/01/02 12:11:25;;;;;;;0.73;0.70;;;;;;;;;;5000713;28;20112;-59
2022/01/02 12:14:25;;;;;;;0.15;0.15;;;;;;;;;;5004189;28;21895;-60
2022/01/02 12:16:57;;;;;;;0.55;0.55;;;;;;;;;;4989118;28;20049;-59
2022/01/02 12:19:25;;;;;;;0.00;0.00;;;;;;;;;;5005574;28;20899;-60
2022/01/02 12:22:12;;;;;;;0.00;0.00;;;;;;;;;;5004958;28;20041;-60
2022/01/02 12:24:38;;;;;;;0.00;0.00;;;;;;;;;;5001047;28;20045;-61
2022/01/02 12:27:10;;;;;;;0.08;0.08;;;;;;;;;;5016546;28;20288;-58
2022/01/02 12:29:35;;;;;;;0.00;0.00;;;;;;;;;;5003167;28;20109;-59
2022/01/02 12:32:04;;;;;;;0.05;0.05;;;;;;;;;;4998920;28;20047;-59
2022/01/02 12:34:32;;;;;;;0.77;0.52;;;;;;;;;;5003396;28;20266;-59
2022/01/02 12:37:00;;;;;;;0.00;0.00;;;;;;;;;;4986398;28;21022;-59
2022/01/02 12:39:37;;;;;;;4.30;2.22;;;;;;;;;;5019128;28;20041;-59
2022/01/02 12:42:11;;;;;;;0.63;0.35;;;;;;;;;;5015111;28;20119;-59
2022/01/02 12:44:39;;;;;;;0.05;0.00;;;;;;;;;;5017842;28;21411;-60
2022/01/02 12:47:07;;;;;;;0.47;0.45;;;;;;;;;;5019382;28;20120;-59
2022/01/02 12:49:34;;;;;;;1.27;0.45;;;;;;;;;;5005992;28;20500;-60
2022/01/02 12:52:29;;;;;;;0.35;0.35;;;;;;;;;;4999995;28;20028;-58
2022/01/02 12:54:59;;;;;;;0.17;0.17;;;;;;;;;;4984596;28;20041;-60
2022/01/02 12:57:27;;;;;;;0.00;0.00;;;;;;;;;;5000143;28;20037;-60
2022/01/02 12:59:55;;;;;;;0.00;0.00;;;;;;;;;;5018036;28;20033;-60
2022/01/02 13:02:29;;;;;;;0.52;0.52;;;;;;;;;;5014500;28;20045;-59
2022/01/02 13:04:55;;;;;;;1.13;0.68;;;;;;;;;;5014601;28;20044;-59
2022/01/02 13:07:37;;;;;;;4.88;1.42;;;;;;;;;;4983096;28;20053;-59
2022/01/02 13:10:12;;;;;;;0.52;0.52;;;;;;;;;;4986191;28;20041;-60
2022/01/02 13:12:40;;;;;;;0.00;0.00;;;;;;;;;;5005701;28;20026;-60
2022/01/02 13:15:11;;;;;;;0.00;0.00;;;;;;;;;;4972151;28;20032;-58
2022/01/02 13:17:44;;;;;;;0.17;0.17;;;;;;;;;;5000904;28;20072;-59
2022/01/02 13:20:12;;;;;;;0.00;0.00;;;;;;;;;;5004160;28;20044;-61
2022/01/02 13:22:39;;;;;;;0.17;0.17;;;;;;;;;;5004293;28;22077;-60
2022/01/02 13:25:27;;;;;;;2.60;1.83;;;;;;;;;;4986074;28;20172;-59
2022/01/02 13:27:56;;;;;;;0.10;0.10;;;;;;;;;;4965946;28;20112;-59
2022/01/02 13:30:23;;;;;;;0.00;0.00;;;;;;;;;;5005270;28;20025;-58
2022/01/02 13:32:51;;;;;;;1.38;0.60;;;;;;;;;;5004619;28;20057;-59
2022/01/02 13:35:21;;;;;;;0.00;0.00;;;;;;;;;;4985933;28;20075;-58
2022/01/02 13:37:56;;;;;;;0.05;0.05;;;;;;;;;;5006787;28;20489;-59
2022/01/02 13:40:24;;;;;;;0.00;0.00;;;;;;;;;;4986017;28;20038;-60
2022/01/02 13:42:52;;;;;;;0.00;0.00;;;;;;;;;;4987151;28;20041;-59
2022/01/02 13:45:25;;;;;;;1.65;1.20;;;;;;;;;;5009195;28;20041;-59
2022/01/02 13:47:53;;;;;;;0.00;0.00;;;;;;;;;;5010540;28;20087;-58
2022/01/02 13:50:29;;;;;;;0.20;0.20;;;;;;;;;;4991712;28;20541;-60
2022/01/02 13:52:58;;;;;;;0.00;0.00;;;;;;;;;;5004508;28;20060;-61
2022/01/02 13:55:29;;;;;;;10.30;0.55;;;;;;;;;;5007885;28;20037;-61
2022/01/02 13:58:00;;;;;;;7.75;1.08;;;;;;;;;;5008541;28;20047;-60
2022/01/02 14:00:26;;;;;;;0.47;0.38;;;;;;;;;;5008697;28;20775;-60
2022/01/02 14:02:52;;;;;;;2.17;0.90;;;;;;;;;;4992347;28;20548;-59
2022/01/02 14:05:18;;;;;;;0.35;0.35;;;;;;;;;;4990891;28;20037;-59
2022/01/02 14:07:47;;;;;;;0.65;0.65;;;;;;;;;;4973673;28;20046;-60
2022/01/02 14:10:16;;;;;;;0.38;0.38;;;;;;;;;;4968019;28;20045;-58
2022/01/02 14:12:44;;;;;;;0.10;0.10;;;;;;;;;;4973304;28;20116;-58
2022/01/02 14:15:18;;;;;;;0.00;0.00;;;;;;;;;;4983590;28;20127;-58
2022/01/02 14:17:47;;;;;;;0.00;0.00;;;;;;;;;;4999985;28;20033;-59
2022/01/02 14:20:18;;;;;;;1.77;0.95;;;;;;;;;;4985283;28;20751;-59
2022/01/02 14:22:43;;;;;;;0.08;0.08;;;;;;;;;;4981638;28;20053;-59
2022/01/02 14:25:14;;;;;;;0.00;0.00;;;;;;;;;;4998746;28;20045;-58
2022/01/02 14:27:42;;;;;;;1.70;1.25;;;;;;;;;;4980902;28;20120;-59
2022/01/02 14:30:11;;;;;;;0.00;0.00;;;;;;;;;;4996553;28;20033;-60
2022/01/02 14:32:39;;;;;;;0.85;0.43;;;;;;;;;;4997830;28;20037;-59
2022/01/02 14:35:06;;;;;;;0.10;0.10;;;;;;;;;;4970159;28;20037;-58
2022/01/02 14:37:34;;;;;;;0.00;0.00;;;;;;;;;;4968591;28;20088;-59
2022/01/02 14:40:03;;;;;;;2.63;0.35;;;;;;;;;;4999500;28;20038;-59
2022/01/02 14:42:29;;;;;;;2.72;0.90;;;;;;;;;;4999504;28;20069;-59
2022/01/02 14:44:56;;;;;;;2.20;0.45;;;;;;;;;;4982826;28;20578;-59
2022/01/02 14:47:26;;;;;;;0.00;0.00;;;;;;;;;;5001142;28;20025;-59
2022/01/02 14:49:54;;;;;;;2.17;0.22;;;;;;;;;;4967201;28;20018;-59
2022/01/02 14:52:20;;;;;;;0.00;0.00;;;;;;;;;;4982474;28;20163;-59
2022/01/02 14:54:46;;;;;;;0.00;0.00;;;;;;;;;;5000043;28;20076;-60
2022/01/02 14:57:11;;;;;;;0.00;0.00;;;;;;;;;;4982809;28;20499;-60